createdAt,value
2023-03-31T00:02:06.582Z,12.03
2023-03-31T00:04:36.333Z,12.08
2023-03-31T00:07:08.223Z,12.00
2023-03-31T00:09:38.216Z,11.91
2023-03-31T00:12:09.632Z,11.67
2023-03-31T00:14:39.827Z,11.88
2023-03-31T00:17:11.377Z,12.01
2023-03-31T00:19:41.818Z,11.82
2023-03-31T00:22:11.835Z,11.95
2023-03-31T00:24:41.672Z,11.85
2023-03-31T00:27:11.558Z,12.11
2023-03-31T00:29:41.676Z,12.11
2023-03-31T00:32:11.801Z,12.03
2023-03-31T00:34:41.805Z,11.98
2023-03-31T00:37:13.257Z,11.97
2023-03-31T00:39:43.404Z,11.92
2023-03-31T00:42:13.622Z,11.98
2023-03-31T00:45:18.272Z,12.06
2023-03-31T00:47:51.805Z,11.87
2023-03-31T00:50:29.031Z,11.80
2023-03-31T00:53:04.973Z,11.67
2023-03-31T00:55:40.745Z,11.67
2023-03-31T00:58:14.487Z,11.47
2023-03-31T01:00:44.846Z,11.77
2023-03-31T01:03:15.885Z,11.60
2023-03-31T01:05:51.935Z,11.81
2023-03-31T01:08:25.895Z,11.81
2023-03-31T01:11:04.737Z,11.82
2023-03-31T01:13:37.775Z,11.65
2023-03-31T01:16:11.992Z,11.78
2023-03-31T01:18:43.528Z,11.58
2023-03-31T01:21:40.310Z,11.82
2023-03-31T01:24:20.679Z,11.95
2023-03-31T01:27:09.775Z,11.99
2023-03-31T01:29:42.754Z,11.87
2023-03-31T01:32:30.336Z,11.86
2023-03-31T01:35:24.352Z,11.94
2023-03-31T01:38:13.573Z,11.82
2023-03-31T01:41:19.320Z,11.99
2023-03-31T01:44:25.438Z,12.00
2023-03-31T01:46:58.313Z,11.91
2023-03-31T01:49:45.848Z,11.91
2023-03-31T01:52:24.099Z,11.90
2023-03-31T01:55:15.938Z,11.84
2023-03-31T01:57:54.529Z,11.57
2023-03-31T02:00:36.294Z,11.57
2023-03-31T02:03:14.788Z,11.55
2023-03-31T02:05:47.626Z,11.78
2023-03-31T02:08:26.040Z,11.59
2023-03-31T02:10:57.563Z,11.71
2023-03-31T02:13:30.290Z,11.53
2023-03-31T02:16:03.261Z,11.66
2023-03-31T02:18:36.741Z,11.47
2023-03-31T02:21:08.726Z,11.45
2023-03-31T02:23:39.596Z,11.58
2023-03-31T02:26:29.430Z,11.66
2023-03-31T02:29:00.136Z,11.66
2023-03-31T02:31:52.551Z,11.70
2023-03-31T02:34:22.480Z,11.83
2023-03-31T02:36:52.750Z,11.72
2023-03-31T02:39:31.288Z,11.59
2023-03-31T02:42:02.977Z,11.49
2023-03-31T02:44:32.859Z,11.55
2023-03-31T02:47:04.912Z,11.49
2023-03-31T02:49:38.099Z,11.83
2023-03-31T02:52:41.042Z,11.69
2023-03-31T02:55:33.038Z,11.68
2023-03-31T02:58:15.273Z,11.61
2023-03-31T03:01:08.618Z,11.67
2023-03-31T03:03:47.501Z,11.67
2023-03-31T03:06:33.408Z,11.89
2023-03-31T03:09:17.079Z,11.75
2023-03-31T03:12:06.619Z,11.73
2023-03-31T03:14:51.509Z,11.87
2023-03-31T03:17:30.052Z,11.87
2023-03-31T03:20:04.611Z,11.75
2023-03-31T03:22:34.111Z,11.82
2023-03-31T03:25:05.513Z,11.75
2023-03-31T03:27:35.887Z,11.68
2023-03-31T03:30:10.003Z,11.57
2023-03-31T03:32:41.291Z,11.86
2023-03-31T03:35:11.774Z,11.86
2023-03-31T03:37:42.211Z,11.87
2023-03-31T03:40:14.440Z,11.94
2023-03-31T03:42:44.339Z,12.09
2023-03-31T03:45:13.949Z,12.16
2023-03-31T03:47:43.874Z,12.05
2023-03-31T03:50:16.207Z,11.90
2023-03-31T03:52:46.875Z,11.83
2023-03-31T03:55:17.779Z,11.87
2023-03-31T03:57:47.619Z,11.73
2023-03-31T04:00:18.099Z,11.53
2023-03-31T04:02:48.002Z,11.37
2023-03-31T04:05:17.908Z,11.72
2023-03-31T04:07:47.782Z,11.66
2023-03-31T04:10:17.893Z,11.55
2023-03-31T04:12:47.713Z,11.58
2023-03-31T04:15:17.434Z,11.75
2023-03-31T04:17:48.969Z,11.63
2023-03-31T04:20:19.725Z,11.66
2023-03-31T04:22:50.672Z,11.61
2023-03-31T04:25:21.971Z,11.55
2023-03-31T04:27:56.021Z,11.58
2023-03-31T04:30:29.281Z,11.69
2023-03-31T04:33:01.665Z,11.62
2023-03-31T04:35:34.255Z,11.57
2023-03-31T04:38:06.410Z,11.21
2023-03-31T04:40:36.564Z,11.35
2023-03-31T04:43:06.184Z,11.31
2023-03-31T04:45:36.016Z,11.19
2023-03-31T04:48:08.066Z,11.33
2023-03-31T04:50:38.414Z,11.32
2023-03-31T04:53:08.767Z,11.32
2023-03-31T04:55:38.845Z,11.14
2023-03-31T04:58:10.960Z,10.94
2023-03-31T05:00:40.802Z,11.23
2023-03-31T05:03:10.686Z,11.38
2023-03-31T05:05:40.743Z,11.18
2023-03-31T05:08:11.956Z,11.24
2023-03-31T05:10:41.780Z,11.18
2023-03-31T05:13:12.381Z,11.32
2023-03-31T05:15:43.887Z,11.33
2023-03-31T05:18:13.669Z,11.14
2023-03-31T05:20:43.469Z,11.34
2023-03-31T05:23:14.134Z,11.28
2023-03-31T05:25:43.953Z,11.27
2023-03-31T05:28:13.750Z,11.21
2023-03-31T05:30:43.929Z,11.21
2023-03-31T05:33:14.398Z,11.26
2023-03-31T05:35:45.282Z,11.33
2023-03-31T05:38:14.972Z,11.02
2023-03-31T05:40:44.750Z,11.34
2023-03-31T05:43:14.648Z,11.34
2023-03-31T05:45:44.475Z,11.17
2023-03-31T05:48:13.972Z,11.14
2023-03-31T05:50:44.152Z,11.22
2023-03-31T05:53:14.205Z,11.16
2023-03-31T05:55:44.021Z,11.28
2023-03-31T05:58:13.835Z,11.23
2023-03-31T06:00:44.538Z,11.32
2023-03-31T06:03:14.869Z,11.32
2023-03-31T06:05:49.488Z,11.35
2023-03-31T06:08:19.061Z,11.18
2023-03-31T06:10:48.871Z,11.15
2023-03-31T06:13:18.666Z,11.42
2023-03-31T06:16:01.795Z,11.52
2023-03-31T06:18:33.720Z,11.32
2023-03-31T06:21:03.941Z,11.50
2023-03-31T06:23:34.689Z,11.36
2023-03-31T06:26:08.760Z,11.63
2023-03-31T06:28:38.570Z,11.64
2023-03-31T06:31:12.634Z,11.64
2023-03-31T06:33:44.091Z,11.58
2023-03-31T06:36:16.404Z,11.56
2023-03-31T06:38:46.934Z,11.71
2023-03-31T06:41:18.342Z,11.35
2023-03-31T06:43:48.260Z,11.55
2023-03-31T06:46:19.471Z,11.61
2023-03-31T06:48:49.311Z,11.65
2023-03-31T06:51:19.312Z,11.40
2023-03-31T06:53:49.231Z,11.47
2023-03-31T06:56:18.753Z,11.38
2023-03-31T06:58:48.692Z,11.51
2023-03-31T07:01:18.552Z,11.51
2023-03-31T07:03:48.501Z,11.29
2023-03-31T07:06:18.392Z,11.37
2023-03-31T07:08:48.265Z,11.32
2023-03-31T07:11:21.060Z,11.44
2023-03-31T07:13:49.604Z,11.49
2023-03-31T07:16:19.190Z,11.57
2023-03-31T07:18:50.366Z,11.49
2023-03-31T07:21:20.194Z,11.60
2023-03-31T07:23:50.029Z,11.43
2023-03-31T07:26:19.816Z,11.45
2023-03-31T07:28:49.721Z,11.43
2023-03-31T07:31:19.844Z,11.50
2023-03-31T07:33:49.604Z,11.30
2023-03-31T07:36:19.391Z,11.49
2023-03-31T07:38:49.762Z,11.63
2023-03-31T07:41:21.707Z,11.34
2023-03-31T07:43:51.990Z,11.44
2023-03-31T07:46:24.964Z,11.64
2023-03-31T07:48:56.803Z,11.63
2023-03-31T07:51:27.834Z,11.98
2023-03-31T07:53:57.745Z,11.66
2023-03-31T07:56:27.855Z,11.83
2023-03-31T07:58:57.975Z,11.85
2023-03-31T08:01:29.790Z,12.18
2023-03-31T08:03:59.786Z,12.19
2023-03-31T08:06:30.047Z,12.21
2023-03-31T08:09:00.749Z,12.06
2023-03-31T08:11:30.881Z,11.91
2023-03-31T08:14:00.913Z,12.17
2023-03-31T08:16:30.835Z,12.48
2023-03-31T08:19:01.467Z,12.48
2023-03-31T08:21:32.095Z,12.28
2023-03-31T08:24:02.072Z,12.24
2023-03-31T08:26:32.844Z,12.61
2023-03-31T08:29:04.103Z,12.31
2023-03-31T08:31:34.083Z,12.31
2023-03-31T08:34:05.494Z,12.74
2023-03-31T08:36:36.117Z,12.55
2023-03-31T08:39:07.462Z,12.65
2023-03-31T08:41:52.135Z,12.80
2023-03-31T08:44:39.407Z,12.72
2023-03-31T08:47:12.271Z,12.97
2023-03-31T08:49:54.283Z,13.14
2023-03-31T08:52:29.964Z,13.23
2023-03-31T08:55:06.590Z,12.87
2023-03-31T08:57:44.314Z,13.03
2023-03-31T09:00:19.515Z,12.95
2023-03-31T09:02:55.512Z,12.84
2023-03-31T09:05:43.400Z,12.93
2023-03-31T09:08:19.353Z,13.18
2023-03-31T09:10:51.913Z,13.25
2023-03-31T09:13:47.566Z,13.35
2023-03-31T09:16:19.425Z,13.11
2023-03-31T09:18:49.277Z,13.02
2023-03-31T09:21:34.026Z,13.33
2023-03-31T09:24:08.104Z,13.67
2023-03-31T09:26:41.111Z,13.54
2023-03-31T09:29:30.047Z,13.80
2023-03-31T09:32:17.279Z,13.31
2023-03-31T09:34:49.630Z,13.86
2023-03-31T09:37:19.497Z,13.63
2023-03-31T09:39:49.549Z,14.05
2023-03-31T09:42:19.859Z,13.86
2023-03-31T09:44:50.573Z,13.84
2023-03-31T09:47:36.986Z,14.05
2023-03-31T09:50:10.478Z,13.95
2023-03-31T09:52:45.997Z,13.80
2023-03-31T09:55:39.568Z,13.81
2023-03-31T09:58:07.330Z,14.17
2023-03-31T10:00:39.422Z,14.39
2023-03-31T10:03:12.702Z,14.18
2023-03-31T10:05:51.255Z,13.85
2023-03-31T10:08:30.246Z,13.73
2023-03-31T10:11:07.003Z,13.53
2023-03-31T10:13:42.621Z,13.77
2023-03-31T10:16:15.228Z,13.93
2023-03-31T10:18:45.340Z,13.67
2023-03-31T10:21:27.016Z,13.64
2023-03-31T10:23:58.354Z,13.69
2023-03-31T10:26:29.717Z,13.79
2023-03-31T10:28:59.492Z,13.80
2023-03-31T10:31:37.725Z,13.88
2023-03-31T10:34:16.492Z,13.95
2023-03-31T10:36:49.120Z,13.86
2023-03-31T10:39:20.187Z,14.14
2023-03-31T10:41:54.616Z,14.45
2023-03-31T10:44:37.034Z,14.47
2023-03-31T10:47:12.683Z,14.61
2023-03-31T10:49:44.220Z,14.53
2023-03-31T10:52:19.951Z,14.55
2023-03-31T10:54:52.591Z,14.46
2023-03-31T10:57:26.558Z,14.73
2023-03-31T11:00:15.092Z,14.31
2023-03-31T11:02:51.200Z,14.65
2023-03-31T11:05:25.335Z,14.67
2023-03-31T11:08:04.153Z,14.58
2023-03-31T11:10:54.476Z,14.60
2023-03-31T11:13:39.209Z,14.79
2023-03-31T11:18:57.036Z,14.47
2023-03-31T11:21:35.577Z,14.91
2023-03-31T11:24:20.565Z,15.05
2023-03-31T11:27:09.229Z,14.78
2023-03-31T11:29:45.398Z,14.44
2023-03-31T11:32:31.511Z,14.44
2023-03-31T11:35:09.840Z,14.71
2023-03-31T11:37:53.907Z,14.64
2023-03-31T11:40:29.349Z,14.64
2023-03-31T11:43:08.138Z,14.58
2023-03-31T11:45:41.137Z,14.84
2023-03-31T11:48:15.942Z,14.94
2023-03-31T11:50:48.073Z,14.84
2023-03-31T11:53:23.626Z,14.84
2023-03-31T11:55:56.341Z,14.94
2023-03-31T11:58:40.920Z,15.17
2023-03-31T12:01:28.040Z,15.33
2023-03-31T12:04:09.818Z,15.23
2023-03-31T12:06:42.962Z,15.25
2023-03-31T12:09:24.501Z,15.47
2023-03-31T12:12:06.230Z,15.30
2023-03-31T12:14:55.635Z,15.53
2023-03-31T12:17:29.146Z,15.53
2023-03-31T12:20:04.789Z,15.40
2023-03-31T12:22:38.913Z,15.16
2023-03-31T12:25:13.301Z,15.09
2023-03-31T12:27:44.787Z,14.68
2023-03-31T12:30:23.121Z,14.76
2023-03-31T12:32:56.405Z,14.66
2023-03-31T12:35:49.829Z,14.29
2023-03-31T12:38:58.122Z,14.53
2023-03-31T12:41:33.721Z,14.56
2023-03-31T12:44:25.298Z,14.55
2023-03-31T12:47:09.933Z,13.95
2023-03-31T12:50:16.714Z,14.20
2023-03-31T12:53:18.308Z,14.12
2023-03-31T12:55:53.732Z,13.95
2023-03-31T12:58:33.541Z,14.28
2023-03-31T13:01:12.302Z,14.44
2023-03-31T13:03:45.635Z,14.30
2023-03-31T13:06:30.408Z,14.33
2023-03-31T13:09:07.502Z,14.10
2023-03-31T13:11:40.509Z,14.11
2023-03-31T13:14:27.147Z,14.05
2023-03-31T13:17:14.369Z,14.05
2023-03-31T13:19:46.004Z,14.30
2023-03-31T13:22:35.763Z,14.26
2023-03-31T13:25:29.307Z,13.92
2023-03-31T13:28:01.795Z,14.24
2023-03-31T13:30:43.170Z,14.04
2023-03-31T13:33:35.399Z,14.06
2023-03-31T13:36:24.922Z,14.33
2023-03-31T13:39:18.846Z,13.90
2023-03-31T13:42:03.790Z,13.82
2023-03-31T13:44:42.099Z,13.81
2023-03-31T13:47:31.436Z,13.67
2023-03-31T13:50:21.959Z,13.44
2023-03-31T13:52:58.064Z,13.53
2023-03-31T13:55:46.670Z,13.61
2023-03-31T13:58:33.683Z,13.33
2023-03-31T14:01:23.533Z,13.55
2023-03-31T14:04:08.116Z,13.88
2023-03-31T14:06:52.395Z,14.02
2023-03-31T14:09:36.488Z,14.24
2023-03-31T14:12:23.979Z,13.75
2023-03-31T14:14:56.805Z,13.66
2023-03-31T14:17:29.559Z,13.60
2023-03-31T14:20:04.351Z,13.60
2023-03-31T14:22:57.955Z,13.53
2023-03-31T14:25:54.730Z,13.61
2023-03-31T14:28:36.351Z,13.59
2023-03-31T14:31:37.427Z,13.93
2023-03-31T14:34:19.401Z,13.67
2023-03-31T14:37:14.308Z,13.83
2023-03-31T14:39:47.562Z,13.52
2023-03-31T14:42:20.623Z,13.22
2023-03-31T14:44:50.410Z,13.18
2023-03-31T14:47:26.133Z,12.98
2023-03-31T14:50:18.815Z,12.73
2023-03-31T14:52:50.934Z,12.80
2023-03-31T14:55:31.753Z,12.94
2023-03-31T14:58:01.463Z,13.29
2023-03-31T15:00:33.755Z,13.29
2023-03-31T15:03:07.183Z,13.28
2023-03-31T15:05:39.279Z,12.94
2023-03-31T15:08:17.170Z,12.99
2023-03-31T15:10:54.077Z,13.17
2023-03-31T15:13:31.036Z,13.10
2023-03-31T15:16:01.208Z,13.14
2023-03-31T15:18:30.871Z,13.19
2023-03-31T15:21:00.981Z,12.85
2023-03-31T15:23:30.987Z,12.91
2023-03-31T15:26:08.965Z,13.16
2023-03-31T15:28:42.746Z,13.35
2023-03-31T15:31:14.369Z,13.35
2023-03-31T15:33:44.842Z,13.03
2023-03-31T15:36:15.947Z,13.38
2023-03-31T15:38:46.325Z,12.80
2023-03-31T15:41:18.011Z,12.78
2023-03-31T15:43:53.049Z,12.99
2023-03-31T15:46:28.257Z,12.99
2023-03-31T15:48:58.413Z,12.91
2023-03-31T15:51:42.313Z,12.60
2023-03-31T15:54:31.753Z,12.46
2023-03-31T15:57:03.501Z,12.51
2023-03-31T15:59:55.434Z,12.35
2023-03-31T16:02:29.281Z,12.29
2023-03-31T16:05:02.779Z,12.30
2023-03-31T16:07:35.476Z,12.68
2023-03-31T16:10:22.139Z,12.64
2023-03-31T16:12:57.573Z,12.46
2023-03-31T16:15:36.044Z,12.49
2023-03-31T16:18:12.118Z,12.62
2023-03-31T16:20:46.057Z,12.60
2023-03-31T16:23:21.975Z,12.40
2023-03-31T16:25:52.531Z,12.26
2023-03-31T16:28:26.088Z,12.33
2023-03-31T16:30:56.220Z,12.57
2023-03-31T16:33:26.543Z,12.41
2023-03-31T16:35:57.549Z,12.53
2023-03-31T16:38:29.837Z,12.49
2023-03-31T16:41:00.688Z,12.28
2023-03-31T16:43:31.757Z,12.29
2023-03-31T16:46:03.982Z,12.27
2023-03-31T16:48:34.694Z,12.07
2023-03-31T16:51:04.968Z,12.04
2023-03-31T16:53:37.122Z,11.84
2023-03-31T16:56:08.772Z,11.75
2023-03-31T16:58:40.520Z,12.10
2023-03-31T17:01:12.463Z,12.20
2023-03-31T17:03:43.185Z,12.24
2023-03-31T17:06:14.872Z,12.07
2023-03-31T17:08:44.679Z,11.95
2023-03-31T17:11:15.925Z,12.10
2023-03-31T17:13:46.486Z,12.17
2023-03-31T17:16:24.444Z,12.28
2023-03-31T17:18:49.811Z,12.10
2023-03-31T17:21:21.863Z,12.10
2023-03-31T17:23:52.286Z,12.04
2023-03-31T17:26:22.446Z,11.91
2023-03-31T17:28:52.578Z,11.82
2023-03-31T17:31:24.336Z,11.71
2023-03-31T17:33:54.470Z,11.77
2023-03-31T17:36:24.338Z,11.77
2023-03-31T17:38:55.206Z,11.53
2023-03-31T17:41:25.253Z,11.51
2023-03-31T17:43:59.011Z,11.66
2023-03-31T17:46:29.068Z,11.63
2023-03-31T17:48:59.553Z,11.78
2023-03-31T17:51:29.087Z,11.78
2023-03-31T17:53:59.230Z,11.71
2023-03-31T17:56:29.305Z,11.47
2023-03-31T17:58:59.409Z,11.54
2023-03-31T18:01:29.605Z,11.62
2023-03-31T18:03:59.505Z,11.71
2023-03-31T18:06:29.301Z,11.69
2023-03-31T18:08:59.102Z,11.75
2023-03-31T18:11:29.336Z,11.58
2023-03-31T18:14:01.141Z,11.53
2023-03-31T18:16:32.080Z,11.53
2023-03-31T18:19:02.076Z,11.44
2023-03-31T18:21:31.865Z,11.63
2023-03-31T18:24:02.652Z,11.47
2023-03-31T18:26:32.569Z,11.47
2023-03-31T18:29:02.983Z,11.55
2023-03-31T18:31:32.904Z,11.69
2023-03-31T18:34:02.805Z,11.38
2023-03-31T18:36:32.966Z,11.48
2023-03-31T18:39:04.029Z,11.42
2023-03-31T18:41:33.810Z,11.48
2023-03-31T18:44:03.696Z,11.65
2023-03-31T18:46:33.643Z,11.52
2023-03-31T18:49:03.638Z,11.23
2023-03-31T18:51:33.465Z,11.39
2023-03-31T18:54:03.640Z,11.09
2023-03-31T18:56:33.492Z,11.09
2023-03-31T18:59:04.829Z,11.22
2023-03-31T19:01:36.308Z,11.29
2023-03-31T19:04:06.321Z,11.38
2023-03-31T19:06:36.437Z,11.44
2023-03-31T19:09:06.324Z,11.57
2023-03-31T19:11:36.501Z,11.37
2023-03-31T19:14:06.725Z,11.17
2023-03-31T19:16:38.305Z,11.20
2023-03-31T19:19:08.179Z,11.43
2023-03-31T19:21:38.628Z,11.16
2023-03-31T19:24:09.161Z,11.32
2023-03-31T19:26:39.645Z,11.16
2023-03-31T19:29:09.730Z,11.31
2023-03-31T19:31:40.657Z,11.29
2023-03-31T19:34:11.739Z,11.27
2023-03-31T19:36:41.829Z,11.19
2023-03-31T19:39:12.067Z,11.25
2023-03-31T19:41:41.939Z,11.13
2023-03-31T19:44:13.454Z,11.24
2023-03-31T19:46:43.393Z,11.01
2023-03-31T19:49:13.476Z,11.29
2023-03-31T19:51:43.364Z,11.23
2023-03-31T19:54:15.320Z,11.18
2023-03-31T19:56:45.788Z,11.20
2023-03-31T19:59:16.018Z,10.96
2023-03-31T20:01:46.099Z,11.25
2023-03-31T20:04:18.031Z,10.96
2023-03-31T20:06:49.589Z,10.96
2023-03-31T20:09:19.539Z,11.20
2023-03-31T20:11:49.511Z,11.20
2023-03-31T20:14:19.412Z,11.19
2023-03-31T20:16:50.991Z,11.28
2023-03-31T20:19:22.366Z,11.30
2023-03-31T20:21:55.256Z,11.12
2023-03-31T20:24:27.193Z,11.12
2023-03-31T20:26:57.292Z,11.16
2023-03-31T20:29:27.415Z,11.19
2023-03-31T20:31:57.349Z,11.22
2023-03-31T20:34:27.545Z,11.05
2023-03-31T20:36:57.251Z,10.88
2023-03-31T20:39:27.359Z,11.06
2023-03-31T20:41:57.161Z,10.99
2023-03-31T20:44:27.636Z,10.97
2023-03-31T20:46:59.027Z,10.88
2023-03-31T20:49:29.241Z,10.81
2023-03-31T20:51:59.520Z,10.99
2023-03-31T20:54:29.680Z,10.99
2023-03-31T20:57:01.188Z,11.14
2023-03-31T20:59:31.398Z,11.09
2023-03-31T21:02:01.197Z,11.01
2023-03-31T21:04:30.867Z,11.06
2023-03-31T21:07:01.059Z,10.70
2023-03-31T21:09:31.342Z,10.74
2023-03-31T21:12:02.659Z,10.87
2023-03-31T21:14:33.101Z,10.99
2023-03-31T21:17:03.170Z,11.09
2023-03-31T21:19:33.386Z,11.16
2023-03-31T21:22:03.189Z,11.06
2023-03-31T21:24:33.323Z,10.86
2023-03-31T21:27:03.192Z,11.12
2023-03-31T21:29:33.762Z,11.34
2023-03-31T21:32:03.646Z,11.01
2023-03-31T21:34:33.800Z,10.78
2023-03-31T21:37:03.576Z,10.92
2023-03-31T21:39:33.702Z,11.00
2023-03-31T21:42:04.430Z,11.01
2023-03-31T21:44:34.491Z,11.16
2023-03-31T21:47:04.364Z,11.21
2023-03-31T21:49:34.498Z,10.97
2023-03-31T21:52:05.156Z,10.88
2023-03-31T21:54:35.371Z,10.87
2023-03-31T21:57:05.206Z,10.94
2023-03-31T21:59:35.397Z,10.83
2023-03-31T22:02:06.235Z,10.90
2023-03-31T22:04:36.659Z,10.89
2023-03-31T22:07:06.848Z,10.59
2023-03-31T22:09:37.115Z,10.79
2023-03-31T22:12:07.059Z,11.04
2023-03-31T22:14:38.530Z,10.76
2023-03-31T22:17:08.354Z,10.96
2023-03-31T22:19:38.234Z,10.53
2023-03-31T22:22:08.706Z,10.83
2023-03-31T22:24:38.523Z,10.77
2023-03-31T22:27:08.468Z,10.73
2023-03-31T22:29:38.287Z,10.60
2023-03-31T22:32:08.210Z,10.89
2023-03-31T22:34:38.014Z,10.99
2023-03-31T22:37:07.840Z,11.02
2023-03-31T22:39:37.646Z,10.86
2023-03-31T22:42:07.687Z,11.00
2023-03-31T22:44:40.114Z,10.95
2023-03-31T22:47:10.340Z,10.85
2023-03-31T22:49:40.718Z,10.89
2023-03-31T22:52:10.958Z,10.78
2023-03-31T22:54:41.186Z,10.95
2023-03-31T22:57:11.630Z,10.74
2023-03-31T22:59:41.935Z,10.75
2023-03-31T23:02:11.737Z,10.82
2023-03-31T23:04:41.734Z,10.75
2023-03-31T23:07:11.722Z,10.68
2023-03-31T23:09:41.598Z,10.76
2023-03-31T23:12:11.447Z,10.89
2023-03-31T23:14:41.259Z,10.69
2023-03-31T23:17:11.260Z,10.78
2023-03-31T23:19:41.709Z,10.65
2023-03-31T23:22:11.542Z,10.70
2023-03-31T23:24:41.642Z,10.58
2023-03-31T23:27:11.542Z,10.62
2023-03-31T23:29:41.430Z,10.74
2023-03-31T23:32:14.550Z,10.75
2023-03-31T23:34:44.450Z,10.84
2023-03-31T23:37:15.563Z,10.85
2023-03-31T23:39:45.522Z,10.80
2023-03-31T23:42:18.258Z,10.75
2023-03-31T23:44:48.282Z,10.76
2023-03-31T23:47:18.085Z,10.68
2023-03-31T23:49:47.891Z,10.67
2023-03-31T23:52:19.047Z,10.67
2023-03-31T23:54:48.854Z,10.61
2023-03-31T23:57:21.111Z,10.75
2023-03-31T23:59:52.322Z,10.72
